createdAt,value
2022-12-22T04:45:53.300Z,10.90
2022-12-22T04:48:20.735Z,11.00
2022-12-22T04:50:51.086Z,10.50
2022-12-22T04:53:17.661Z,10.40
2022-12-22T04:55:54.702Z,10.30
2022-12-22T04:58:21.406Z,10.40
2022-12-22T05:01:07.951Z,10.50
2022-12-22T05:03:34.512Z,10.50
2022-12-22T05:06:01.209Z,10.50
2022-12-22T05:08:27.869Z,10.60
2022-12-22T05:10:54.506Z,10.70
2022-12-22T05:13:21.076Z,10.60
2022-12-22T05:15:47.730Z,10.50
2022-12-22T05:18:14.328Z,10.60
2022-12-22T05:20:40.981Z,10.50
2022-12-22T05:23:07.664Z,10.60
2022-12-22T05:25:35.598Z,10.50
2022-12-22T05:28:02.664Z,10.70
2022-12-22T05:30:29.579Z,10.70
2022-12-22T05:32:56.215Z,10.90
2022-12-22T05:35:22.842Z,10.90
2022-12-22T05:37:49.427Z,11.10
2022-12-22T05:40:16.052Z,11.10
2022-12-22T05:42:42.647Z,10.90
2022-12-22T05:45:18.223Z,10.90
2022-12-22T05:47:51.070Z,11.00
2022-12-22T05:50:24.148Z,10.90
2022-12-22T05:52:50.785Z,10.90
2022-12-22T05:55:17.349Z,11.00
2022-12-22T05:57:44.092Z,11.10
2022-12-22T06:00:14.091Z,11.20
2022-12-22T06:02:41.432Z,11.20
2022-12-22T06:05:09.193Z,11.10
2022-12-22T06:07:35.858Z,10.90
2022-12-22T06:10:11.295Z,10.80
2022-12-22T06:12:39.501Z,11.00
2022-12-22T06:15:06.984Z,11.20
2022-12-22T06:17:35.741Z,11.00
2022-12-22T06:20:07.469Z,10.50
2022-12-22T06:22:34.597Z,10.60
2022-12-22T06:25:01.225Z,10.40
2022-12-22T06:27:27.953Z,10.20
2022-12-22T06:29:54.464Z,10.40
2022-12-22T06:32:21.050Z,10.50
2022-12-22T06:34:47.712Z,10.60
2022-12-22T06:37:14.256Z,10.30
2022-12-22T06:39:40.820Z,10.30
2022-12-22T06:42:27.735Z,10.20
2022-12-22T06:44:55.457Z,10.20
2022-12-22T06:47:22.594Z,10.40
2022-12-22T06:49:49.683Z,10.50
2022-12-22T06:52:16.302Z,10.60
2022-12-22T06:54:42.954Z,10.60
2022-12-22T06:57:09.721Z,10.70
2022-12-22T06:59:36.334Z,10.70
2022-12-22T07:02:03.415Z,10.50
2022-12-22T07:04:30.876Z,10.50
2022-12-22T07:06:57.697Z,10.70
2022-12-22T07:09:24.379Z,10.80
2022-12-22T07:11:51.006Z,10.90
2022-12-22T07:14:17.639Z,10.90
2022-12-22T07:16:44.423Z,10.90
2022-12-22T07:19:11.353Z,10.70
2022-12-22T07:21:37.998Z,10.50
2022-12-22T07:24:05.022Z,10.50
2022-12-22T07:26:31.619Z,10.50
2022-12-22T07:28:58.292Z,10.60
2022-12-22T07:31:25.032Z,10.60
2022-12-22T07:33:51.922Z,10.40
2022-12-22T07:36:20.510Z,10.20
2022-12-22T07:38:49.413Z,10.20
2022-12-22T07:41:37.310Z,10.20
2022-12-22T07:44:04.659Z,10.20
2022-12-22T07:46:34.991Z,10.10
2022-12-22T07:49:20.349Z,10.20
2022-12-22T07:51:46.977Z,10.40
2022-12-22T07:54:15.079Z,10.30
2022-12-22T07:56:41.842Z,10.20
2022-12-22T07:59:09.139Z,10.20
2022-12-22T08:01:35.914Z,10.20
2022-12-22T08:04:03.017Z,10.30
2022-12-22T08:06:29.691Z,10.40
2022-12-22T08:08:56.263Z,10.70
2022-12-22T08:11:22.826Z,10.70
2022-12-22T08:13:49.870Z,10.90
2022-12-22T08:16:16.716Z,10.90
2022-12-22T08:18:44.303Z,11.10
2022-12-22T08:21:10.946Z,11.30
2022-12-22T08:23:37.879Z,11.60
2022-12-22T08:26:22.089Z,11.80
2022-12-22T08:28:54.102Z,12.60
2022-12-22T08:31:22.447Z,12.70
2022-12-22T08:33:49.182Z,13.00
2022-12-22T08:36:16.026Z,13.10
2022-12-22T08:38:43.527Z,13.10
2022-12-22T08:41:12.971Z,13.20
2022-12-22T08:43:39.564Z,12.80
2022-12-22T08:46:06.226Z,12.50
2022-12-22T08:48:33.008Z,13.10
2022-12-22T08:50:59.641Z,12.80
2022-12-22T08:54:02.391Z,12.20
2022-12-22T08:56:12.939Z,11.60
2022-12-22T08:58:40.206Z,11.20
2022-12-22T09:01:06.821Z,11.00
2022-12-22T09:03:33.600Z,10.90
2022-12-22T09:06:01.176Z,11.00
2022-12-22T09:08:27.719Z,10.90
2022-12-22T09:10:54.337Z,11.00
2022-12-22T09:13:20.911Z,11.00
2022-12-22T09:15:47.407Z,11.70
2022-12-22T09:18:14.006Z,12.60
2022-12-22T09:20:40.598Z,12.60
2022-12-22T09:23:07.127Z,12.10
2022-12-22T09:25:35.061Z,11.80
2022-12-22T09:28:01.756Z,11.30
2022-12-22T09:30:28.297Z,11.00
2022-12-22T09:32:55.088Z,10.70
2022-12-22T09:35:21.723Z,10.50
2022-12-22T09:37:48.726Z,10.40
2022-12-22T09:40:15.294Z,10.40
2022-12-22T09:42:41.997Z,10.20
2022-12-22T09:45:19.958Z,10.30
2022-12-22T09:47:56.372Z,10.30
2022-12-22T09:50:24.558Z,10.60
2022-12-22T09:53:04.874Z,11.70
2022-12-22T09:55:45.009Z,12.50
2022-12-22T09:58:38.146Z,13.50
2022-12-22T10:01:33.199Z,14.90
2022-12-22T10:04:09.471Z,15.50
2022-12-22T10:06:53.730Z,14.50
2022-12-22T10:09:49.579Z,13.80
2022-12-22T10:12:19.368Z,14.10
2022-12-22T10:14:51.533Z,14.90
2022-12-22T10:17:29.011Z,14.40
2022-12-22T10:20:18.832Z,14.20
2022-12-22T10:23:01.831Z,14.70
2022-12-22T10:25:45.040Z,14.20
2022-12-22T10:28:22.142Z,13.70
2022-12-22T10:30:48.809Z,13.70
2022-12-22T10:33:17.808Z,14.30
2022-12-22T10:35:53.856Z,14.30
2022-12-22T10:38:31.376Z,14.90
2022-12-22T10:41:22.650Z,15.20
2022-12-22T10:43:55.527Z,14.90
2022-12-22T10:46:45.718Z,14.70
2022-12-22T10:49:17.989Z,14.80
2022-12-22T10:51:48.181Z,14.50
2022-12-22T10:54:26.402Z,15.10
2022-12-22T10:57:04.617Z,14.70
2022-12-22T10:59:32.809Z,13.80
2022-12-22T11:02:21.357Z,13.20
2022-12-22T11:04:52.712Z,13.00
2022-12-22T11:07:19.888Z,12.70
2022-12-22T11:09:46.619Z,12.70
2022-12-22T11:12:34.307Z,12.70
2022-12-22T11:15:30.803Z,12.80
2022-12-22T11:18:32.130Z,12.60
2022-12-22T11:21:40.575Z,12.50
2022-12-22T11:24:21.596Z,12.50
2022-12-22T11:27:06.477Z,12.50
2022-12-22T11:29:38.890Z,12.50
2022-12-22T11:32:43.082Z,12.40
2022-12-22T11:35:09.597Z,12.30
2022-12-22T11:37:39.105Z,12.40
2022-12-22T11:40:15.333Z,12.20
2022-12-22T11:42:44.970Z,12.10
2022-12-22T11:45:42.695Z,12.20
2022-12-22T11:48:28.975Z,12.20
2022-12-22T11:51:09.230Z,12.10
2022-12-22T11:53:51.108Z,12.00
2022-12-22T11:56:25.135Z,12.10
2022-12-22T11:59:13.097Z,12.20
2022-12-22T12:02:27.426Z,12.20
2022-12-22T12:05:05.945Z,12.10
2022-12-22T12:07:43.192Z,12.10
2022-12-22T12:10:28.745Z,12.10
2022-12-22T12:13:27.416Z,12.10
2022-12-22T12:16:25.182Z,12.10
2022-12-22T12:18:51.747Z,11.90
2022-12-22T12:21:27.089Z,12.00
2022-12-22T12:23:54.871Z,11.80
2022-12-22T12:26:24.442Z,12.10
2022-12-22T12:29:00.093Z,12.20
2022-12-22T12:31:34.547Z,12.20
2022-12-22T12:34:03.346Z,12.10
2022-12-22T12:36:49.510Z,12.10
2022-12-22T12:39:22.233Z,12.10
2022-12-22T12:42:16.484Z,12.30
2022-12-22T12:44:44.014Z,12.20
2022-12-22T12:47:32.788Z,12.10
2022-12-22T12:49:59.448Z,12.30
2022-12-22T12:52:52.145Z,12.40
2022-12-22T12:55:33.422Z,12.40
2022-12-22T12:58:03.373Z,12.60
2022-12-22T13:00:33.186Z,12.50
2022-12-22T13:03:08.955Z,12.50
2022-12-22T13:05:59.352Z,12.40
2022-12-22T13:08:26.839Z,12.40
2022-12-22T13:10:53.420Z,12.50
2022-12-22T13:13:22.835Z,12.30
2022-12-22T13:15:50.360Z,12.20
2022-12-22T13:18:23.585Z,12.10
2022-12-22T13:20:55.878Z,12.00
2022-12-22T13:24:14.545Z,12.00
2022-12-22T13:26:37.295Z,12.30
2022-12-22T13:29:15.686Z,12.40
2022-12-22T13:31:52.521Z,12.30
2022-12-22T13:34:57.582Z,12.30
2022-12-22T13:37:29.393Z,12.30
2022-12-22T13:40:05.958Z,12.50
2022-12-22T13:42:40.160Z,12.40
2022-12-22T13:45:16.943Z,12.60
2022-12-22T13:47:45.959Z,12.80
2022-12-22T13:50:30.618Z,12.80
2022-12-22T13:52:58.104Z,12.90
2022-12-22T13:55:28.900Z,12.80
2022-12-22T13:57:59.808Z,12.70
2022-12-22T14:00:28.428Z,12.90
2022-12-22T14:02:55.262Z,12.90
2022-12-22T14:05:22.448Z,13.00
2022-12-22T14:08:04.487Z,13.20
2022-12-22T14:10:42.887Z,13.10
2022-12-22T14:13:15.657Z,12.70
2022-12-22T14:15:43.766Z,12.60
2022-12-22T14:18:21.129Z,12.80
2022-12-22T14:20:48.708Z,12.80
2022-12-22T14:23:48.799Z,12.60
2022-12-22T14:26:20.852Z,12.70
2022-12-22T14:28:54.137Z,12.50
2022-12-22T14:31:20.911Z,12.50
2022-12-22T14:33:56.342Z,12.60
2022-12-22T14:36:27.129Z,12.80
2022-12-22T14:38:56.412Z,12.60
2022-12-22T14:41:44.475Z,12.70
2022-12-22T14:44:27.863Z,12.60
2022-12-22T14:47:20.160Z,12.50
2022-12-22T14:49:51.128Z,12.40
2022-12-22T14:52:45.232Z,12.40
2022-12-22T14:55:31.685Z,12.30
2022-12-22T14:58:02.743Z,12.20
2022-12-22T15:00:29.630Z,12.30
2022-12-22T15:02:59.181Z,12.20
2022-12-22T15:05:37.529Z,12.40
2022-12-22T15:08:08.965Z,12.40
2022-12-22T15:10:44.663Z,12.30
2022-12-22T15:13:18.267Z,12.00
2022-12-22T15:15:44.987Z,12.30
2022-12-22T15:18:14.069Z,12.10
2022-12-22T15:20:40.760Z,12.10
2022-12-22T15:23:14.230Z,12.20
2022-12-22T15:25:40.972Z,12.40
2022-12-22T15:28:07.632Z,12.30
2022-12-22T15:30:34.580Z,12.10
2022-12-22T15:33:01.431Z,12.10
2022-12-22T15:35:33.188Z,12.10
2022-12-22T15:38:01.078Z,12.30
2022-12-22T15:40:28.702Z,12.10
2022-12-22T15:42:55.532Z,12.00
2022-12-22T15:45:22.723Z,12.00
2022-12-22T15:47:52.223Z,11.90
2022-12-22T15:50:38.269Z,11.80
2022-12-22T15:53:09.068Z,11.70
2022-12-22T15:55:44.725Z,11.40
2022-12-22T15:58:15.468Z,11.50
2022-12-22T16:00:42.189Z,11.40
2022-12-22T16:03:11.208Z,11.40
2022-12-22T16:05:38.644Z,11.70
2022-12-22T16:08:17.722Z,11.80
2022-12-22T16:10:45.905Z,11.80
2022-12-22T16:13:14.391Z,11.70
2022-12-22T16:15:41.463Z,11.70
2022-12-22T16:18:12.031Z,11.70
2022-12-22T16:20:41.708Z,11.80
2022-12-22T16:23:14.485Z,11.80
2022-12-22T16:25:44.733Z,11.90
2022-12-22T16:28:20.902Z,11.90
2022-12-22T16:30:47.959Z,11.80
2022-12-22T16:33:15.592Z,11.60
2022-12-22T16:35:42.715Z,11.80
2022-12-22T16:38:16.291Z,11.90
2022-12-22T16:40:47.952Z,12.00
2022-12-22T16:46:13.956Z,12.10
2022-12-22T16:48:44.997Z,12.00
2022-12-22T16:51:17.977Z,11.70
2022-12-22T16:53:44.654Z,11.90
2022-12-22T16:56:15.503Z,11.90
2022-12-22T16:58:42.117Z,11.90
2022-12-22T17:01:09.017Z,12.10
2022-12-22T17:03:38.195Z,12.20
2022-12-22T17:06:05.639Z,11.90
2022-12-22T17:08:39.236Z,11.60
2022-12-22T17:11:15.831Z,11.60
2022-12-22T17:13:42.575Z,11.40
2022-12-22T17:16:18.582Z,11.60
2022-12-22T17:18:45.425Z,11.80
2022-12-22T17:21:13.816Z,11.90
2022-12-22T17:23:44.507Z,12.00
2022-12-22T17:26:14.669Z,12.00
2022-12-22T17:28:42.090Z,11.90
2022-12-22T17:31:14.834Z,12.10
2022-12-22T17:33:41.591Z,12.00
2022-12-22T17:36:33.138Z,11.80
2022-12-22T17:39:01.016Z,12.00
2022-12-22T17:41:27.824Z,12.00
2022-12-22T17:43:54.785Z,11.90
2022-12-22T17:46:22.531Z,11.90
2022-12-22T17:48:49.717Z,12.00
2022-12-22T17:51:20.522Z,11.80
2022-12-22T17:53:48.247Z,11.70
2022-12-22T17:56:17.989Z,11.70
2022-12-22T17:58:45.104Z,11.60
2022-12-22T18:01:22.153Z,11.40
2022-12-22T18:03:48.921Z,11.50
2022-12-22T18:06:18.219Z,11.80
2022-12-22T18:08:45.721Z,11.80
2022-12-22T18:11:12.637Z,11.90
2022-12-22T18:13:39.692Z,11.80
2022-12-22T18:16:07.426Z,11.90
2022-12-22T18:18:34.251Z,11.90
2022-12-22T18:21:06.208Z,11.80
2022-12-22T18:23:35.873Z,11.70
2022-12-22T18:26:04.914Z,11.70
2022-12-22T18:28:31.541Z,11.70
2022-12-22T18:30:58.129Z,11.50
2022-12-22T18:33:24.761Z,11.50
2022-12-22T18:35:51.455Z,11.50
2022-12-22T18:38:30.452Z,11.40
2022-12-22T18:40:57.498Z,11.50
2022-12-22T18:43:24.249Z,11.60
2022-12-22T18:45:50.959Z,11.60
2022-12-22T18:48:17.609Z,11.60
2022-12-22T18:50:44.280Z,11.70
2022-12-22T18:53:27.873Z,11.70
2022-12-22T18:55:55.039Z,11.80
2022-12-22T18:58:22.000Z,11.80
2022-12-22T19:00:49.122Z,11.60
2022-12-22T19:03:20.576Z,11.40
2022-12-22T19:05:47.915Z,11.10
2022-12-22T19:08:19.935Z,11.30
2022-12-22T19:10:48.482Z,11.50
2022-12-22T19:13:20.797Z,11.60
2022-12-22T19:15:47.566Z,11.70
2022-12-22T19:18:22.648Z,11.60
2022-12-22T19:20:53.054Z,11.70
2022-12-22T19:23:21.755Z,11.70
2022-12-22T19:25:51.724Z,11.80
2022-12-22T19:28:23.685Z,11.80
2022-12-22T19:30:51.240Z,11.90
2022-12-22T19:33:41.401Z,11.70
2022-12-22T19:36:16.228Z,11.80
2022-12-22T19:38:46.031Z,11.50
2022-12-22T19:41:28.804Z,11.50
2022-12-22T19:43:55.715Z,11.50
2022-12-22T19:46:25.429Z,11.50
2022-12-22T19:48:52.119Z,11.70
2022-12-22T19:51:18.797Z,11.70
2022-12-22T19:53:45.405Z,11.60
2022-12-22T19:56:32.257Z,11.60
2022-12-22T19:59:00.349Z,11.70
2022-12-22T20:01:27.177Z,11.70
2022-12-22T20:03:55.837Z,11.80
2022-12-22T20:06:22.548Z,11.50
2022-12-22T20:08:49.209Z,11.30
2022-12-22T20:11:18.471Z,10.80
2022-12-22T20:13:46.547Z,10.80
2022-12-22T20:16:14.885Z,10.80
2022-12-22T20:18:42.798Z,10.90
2022-12-22T20:21:25.885Z,10.70
2022-12-22T20:23:53.121Z,10.70
2022-12-22T20:26:22.497Z,10.80
2022-12-22T20:28:52.131Z,11.10
2022-12-22T20:31:21.838Z,11.00
2022-12-22T20:33:49.384Z,10.80
2022-12-22T20:36:31.697Z,11.00
2022-12-22T20:39:00.127Z,11.20
2022-12-22T20:41:27.356Z,11.30
2022-12-22T20:43:54.068Z,11.30
2022-12-22T20:46:24.681Z,11.30
2022-12-22T20:49:13.451Z,11.40
2022-12-22T20:51:40.201Z,11.30
2022-12-22T20:54:06.937Z,11.50
2022-12-22T20:56:37.486Z,11.40
2022-12-22T20:59:30.182Z,11.40
2022-12-22T21:01:56.981Z,11.50
2022-12-22T21:04:23.754Z,11.30
2022-12-22T21:06:53.766Z,11.40
2022-12-22T21:09:20.908Z,11.30
2022-12-22T21:11:47.814Z,10.90
2022-12-22T21:14:14.819Z,10.70
2022-12-22T21:16:42.007Z,10.80
2022-12-22T21:19:15.274Z,10.70
2022-12-22T21:21:41.864Z,10.70
2022-12-22T21:24:08.537Z,10.70
2022-12-22T21:26:45.937Z,10.70
2022-12-22T21:29:20.013Z,10.50
2022-12-22T21:31:46.674Z,10.30
2022-12-22T21:34:13.346Z,10.20
2022-12-22T21:36:43.518Z,10.30
2022-12-22T21:39:24.156Z,10.20
2022-12-22T21:41:59.933Z,10.20
2022-12-22T21:44:28.146Z,10.20
2022-12-22T21:46:56.108Z,10.10
2022-12-22T21:49:25.305Z,10.10
2022-12-22T21:51:53.413Z,9.90
2022-12-22T21:54:21.480Z,9.80
2022-12-22T21:56:48.661Z,9.90
2022-12-22T21:59:15.549Z,10.20
2022-12-22T22:01:43.425Z,10.30
2022-12-22T22:04:10.853Z,10.60
2022-12-22T22:06:37.910Z,10.40
2022-12-22T22:09:05.556Z,10.10
2022-12-22T22:11:32.317Z,10.00
2022-12-22T22:14:00.291Z,10.00
2022-12-22T22:16:26.914Z,9.90
2022-12-22T22:18:53.582Z,9.80
2022-12-22T22:21:20.226Z,9.80
2022-12-22T22:23:46.825Z,9.90
2022-12-22T22:26:13.463Z,9.80
2022-12-22T22:28:40.267Z,10.10
2022-12-22T22:31:11.386Z,10.00
2022-12-22T22:33:38.227Z,9.90
2022-12-22T22:36:09.194Z,9.90
2022-12-22T22:38:36.030Z,10.10
2022-12-22T22:41:02.820Z,9.80
2022-12-22T22:43:29.509Z,9.70
2022-12-22T22:45:56.048Z,9.70
2022-12-22T22:48:23.737Z,9.60
2022-12-22T22:50:50.863Z,9.70
2022-12-22T22:53:17.599Z,9.80
2022-12-22T22:55:44.294Z,9.80
2022-12-22T22:58:11.532Z,9.90
2022-12-22T23:00:39.044Z,10.00
2022-12-22T23:03:06.399Z,9.90
2022-12-22T23:05:33.329Z,10.10
2022-12-22T23:08:00.046Z,10.30
2022-12-22T23:10:26.688Z,10.30
2022-12-22T23:12:53.315Z,10.40
2022-12-22T23:15:19.901Z,10.20
2022-12-22T23:17:46.664Z,10.30
2022-12-22T23:20:13.305Z,10.40
2022-12-22T23:22:39.910Z,10.60
2022-12-22T23:25:07.966Z,10.80
2022-12-22T23:27:34.689Z,10.50
2022-12-22T23:30:01.341Z,10.60
2022-12-22T23:32:28.016Z,10.50
2022-12-22T23:34:54.629Z,10.60
2022-12-22T23:37:21.303Z,10.40
2022-12-22T23:39:47.845Z,10.40
2022-12-22T23:42:14.484Z,10.50
2022-12-22T23:44:41.140Z,10.60
2022-12-22T23:47:07.941Z,10.70
2022-12-22T23:49:34.653Z,10.60
2022-12-22T23:52:01.282Z,10.60
2022-12-22T23:54:30.223Z,10.70
2022-12-22T23:56:56.835Z,10.60
2022-12-22T23:59:23.401Z,10.60
